createdAt,value
2019-03-06T00:00:22.856Z,932.40
2019-03-06T00:01:22.857Z,932.39
2019-03-06T00:02:22.833Z,932.38
2019-03-06T00:03:22.824Z,932.42
2019-03-06T00:04:22.810Z,932.40
2019-03-06T00:05:22.814Z,932.43
2019-03-06T00:06:22.787Z,932.44
2019-03-06T00:07:22.791Z,932.38
2019-03-06T00:08:22.765Z,932.37
2019-03-06T00:09:22.754Z,932.37
2019-03-06T00:10:22.775Z,932.34
2019-03-06T00:11:22.760Z,932.32
2019-03-06T00:12:22.718Z,932.29
2019-03-06T00:13:22.717Z,932.30
2019-03-06T00:14:22.701Z,932.29
2019-03-06T00:15:22.701Z,932.23
2019-03-06T00:16:22.674Z,932.27
2019-03-06T00:17:22.662Z,932.25
2019-03-06T00:18:22.652Z,932.26
2019-03-06T00:19:22.649Z,932.24
2019-03-06T00:20:22.645Z,932.26
2019-03-06T00:21:22.618Z,932.24
2019-03-06T00:22:22.614Z,932.23
2019-03-06T00:23:22.598Z,932.17
2019-03-06T00:24:22.592Z,932.17
2019-03-06T00:25:22.599Z,932.18
2019-03-06T00:26:22.563Z,932.17
2019-03-06T00:27:22.552Z,932.15
2019-03-06T00:28:22.541Z,932.19
2019-03-06T00:29:22.530Z,932.19
2019-03-06T00:30:22.533Z,932.21
2019-03-06T00:31:22.518Z,932.17
2019-03-06T00:32:22.496Z,932.19
2019-03-06T00:33:22.507Z,932.17
2019-03-06T00:34:22.474Z,932.18
2019-03-06T00:35:22.964Z,932.15
2019-03-06T00:36:22.455Z,932.16
2019-03-06T00:37:22.595Z,932.16
2019-03-06T00:38:22.429Z,932.20
2019-03-06T00:39:22.419Z,932.21
2019-03-06T00:40:22.440Z,932.19
2019-03-06T00:41:22.396Z,932.19
2019-03-06T00:42:22.384Z,932.15
2019-03-06T00:43:22.381Z,932.17
2019-03-06T00:44:22.363Z,932.13
2019-03-06T00:45:22.350Z,932.13
2019-03-06T00:46:22.367Z,932.11
2019-03-06T00:47:22.328Z,932.09
2019-03-06T00:48:22.316Z,932.08
2019-03-06T00:49:22.310Z,932.07
2019-03-06T00:50:22.296Z,932.07
2019-03-06T00:51:22.301Z,932.05
2019-03-06T00:52:22.272Z,932.04
2019-03-06T00:53:22.260Z,932.04
2019-03-06T00:54:22.251Z,932.01
2019-03-06T00:55:22.247Z,932.05
2019-03-06T00:56:22.265Z,932.03
2019-03-06T00:57:22.217Z,932.01
2019-03-06T00:58:22.205Z,932.08
2019-03-06T00:59:22.195Z,932.05
2019-03-06T01:00:22.226Z,932.06
2019-03-06T01:01:22.193Z,932.00
2019-03-06T01:02:22.162Z,931.97
2019-03-06T01:03:22.149Z,931.95
2019-03-06T01:04:22.138Z,931.92
2019-03-06T01:05:22.127Z,931.94
2019-03-06T01:06:22.131Z,931.95
2019-03-06T01:07:22.114Z,931.94
2019-03-06T01:08:22.093Z,931.97
2019-03-06T01:09:22.099Z,931.92
2019-03-06T01:10:22.072Z,931.92
2019-03-06T01:11:22.077Z,931.87
2019-03-06T01:12:22.046Z,931.90
2019-03-06T01:13:22.053Z,931.88
2019-03-06T01:14:22.025Z,931.90
2019-03-06T01:15:22.013Z,931.94
2019-03-06T01:16:22.018Z,931.93
2019-03-06T01:17:21.994Z,931.89
2019-03-06T01:18:21.979Z,931.91
2019-03-06T01:19:21.980Z,931.85
2019-03-06T01:20:21.958Z,931.85
2019-03-06T01:21:21.972Z,931.82
2019-03-06T01:22:21.936Z,931.85
2019-03-06T01:23:21.923Z,931.77
2019-03-06T01:24:21.918Z,931.80
2019-03-06T01:25:21.910Z,931.76
2019-03-06T01:26:21.905Z,931.77
2019-03-06T01:27:21.882Z,931.74
2019-03-06T01:28:21.870Z,931.73
2019-03-06T01:29:21.857Z,931.74
2019-03-06T01:30:21.846Z,931.72
2019-03-06T01:31:21.858Z,931.69
2019-03-06T01:32:21.825Z,931.68
2019-03-06T01:33:21.812Z,931.67
2019-03-06T01:34:21.801Z,931.67
2019-03-06T01:35:21.790Z,931.66
2019-03-06T01:36:21.794Z,931.63
2019-03-06T01:37:21.774Z,931.64
2019-03-06T01:38:21.755Z,931.64
2019-03-06T01:39:21.745Z,931.61
2019-03-06T01:40:21.738Z,931.65
2019-03-06T01:41:21.757Z,931.64
2019-03-06T01:42:21.718Z,931.62
2019-03-06T01:43:21.708Z,931.60
2019-03-06T01:44:21.690Z,931.59
2019-03-06T01:45:21.685Z,931.57
2019-03-06T01:46:21.666Z,931.57
2019-03-06T01:47:21.671Z,931.52
2019-03-06T01:48:21.646Z,931.54
2019-03-06T01:49:21.638Z,931.50
2019-03-06T01:50:21.622Z,931.49
2019-03-06T01:51:21.611Z,931.48
2019-03-06T01:52:21.618Z,931.44
2019-03-06T01:53:21.591Z,931.44
2019-03-06T01:54:21.580Z,931.45
2019-03-06T01:55:21.576Z,931.42
2019-03-06T01:56:21.557Z,931.43
2019-03-06T01:57:21.561Z,931.41
2019-03-06T01:58:21.539Z,931.39
2019-03-06T01:59:21.521Z,931.38
2019-03-06T02:00:21.513Z,931.40
2019-03-06T02:01:21.506Z,931.40
2019-03-06T02:02:21.504Z,931.37
2019-03-06T02:03:21.480Z,931.37
2019-03-06T02:04:21.466Z,931.38
2019-03-06T02:05:21.455Z,931.38
2019-03-06T02:06:21.443Z,931.33
2019-03-06T02:07:21.462Z,931.33
2019-03-06T02:08:21.423Z,931.30
2019-03-06T02:09:21.409Z,931.29
2019-03-06T02:10:21.398Z,931.28
2019-03-06T02:11:21.389Z,931.30
2019-03-06T02:12:21.402Z,931.31
2019-03-06T02:13:21.397Z,931.32
2019-03-06T02:14:21.352Z,931.28
2019-03-06T02:15:21.345Z,931.26
2019-03-06T02:16:21.330Z,931.25
2019-03-06T02:17:21.319Z,931.25
2019-03-06T02:18:21.326Z,931.20
2019-03-06T02:19:21.301Z,931.22
2019-03-06T02:20:21.294Z,931.26
2019-03-06T02:21:21.289Z,931.25
2019-03-06T02:22:21.264Z,931.27
2019-03-06T02:23:21.268Z,931.26
2019-03-06T02:24:21.242Z,931.29
2019-03-06T02:25:21.231Z,931.29
2019-03-06T02:26:21.236Z,931.33
2019-03-06T02:27:21.208Z,931.34
2019-03-06T02:28:21.213Z,931.30
2019-03-06T02:29:21.189Z,931.31
2019-03-06T02:30:21.174Z,931.26
2019-03-06T02:31:21.164Z,931.27
2019-03-06T02:32:21.178Z,931.28
2019-03-06T02:33:21.162Z,931.27
2019-03-06T02:34:21.131Z,931.23
2019-03-06T02:35:21.118Z,931.19
2019-03-06T02:36:21.108Z,931.19
2019-03-06T02:37:21.133Z,931.22
2019-03-06T02:38:21.114Z,931.16
2019-03-06T02:39:21.084Z,931.19
2019-03-06T02:40:21.069Z,931.12
2019-03-06T02:41:21.053Z,931.18
2019-03-06T02:42:21.039Z,931.12
2019-03-06T02:43:21.051Z,931.09
2019-03-06T02:44:21.049Z,931.11
2019-03-06T02:45:21.006Z,931.11
2019-03-06T02:46:20.996Z,931.07
2019-03-06T02:47:20.984Z,931.06
2019-03-06T02:48:20.990Z,931.02
2019-03-06T02:49:20.963Z,931.00
2019-03-06T02:50:20.963Z,930.93
2019-03-06T02:51:20.942Z,930.86
2019-03-06T02:52:20.931Z,930.90
2019-03-06T02:53:20.942Z,930.84
2019-03-06T02:54:20.907Z,930.83
2019-03-06T02:55:20.900Z,930.83
2019-03-06T02:56:20.893Z,930.82
2019-03-06T02:57:20.874Z,930.79
2019-03-06T02:58:20.882Z,930.82
2019-03-06T02:59:20.852Z,930.80
2019-03-06T03:00:20.840Z,930.81
2019-03-06T03:01:20.831Z,930.79
2019-03-06T03:02:20.827Z,930.73
2019-03-06T03:03:20.822Z,930.76
2019-03-06T03:04:20.797Z,930.73
2019-03-06T03:05:20.784Z,930.73
2019-03-06T03:06:20.773Z,930.69
2019-03-06T03:07:20.765Z,930.67
2019-03-06T03:08:20.782Z,930.73
2019-03-06T03:09:20.763Z,930.71
2019-03-06T03:10:20.730Z,930.74
2019-03-06T03:11:20.718Z,930.70
2019-03-06T03:12:20.708Z,930.77
2019-03-06T03:13:20.699Z,930.73
2019-03-06T03:14:20.712Z,930.72
2019-03-06T03:15:20.674Z,930.75
2019-03-06T03:16:20.661Z,930.73
2019-03-06T03:17:20.651Z,930.72
2019-03-06T03:18:20.645Z,930.70
2019-03-06T03:19:20.647Z,930.69
2019-03-06T03:20:20.635Z,930.65
2019-03-06T03:21:20.608Z,930.65
2019-03-06T03:22:20.595Z,930.64
2019-03-06T03:23:20.584Z,930.63
2019-03-06T03:24:20.587Z,930.62
2019-03-06T03:25:20.565Z,930.65
2019-03-06T03:26:20.563Z,930.61
2019-03-06T03:27:20.539Z,930.60
2019-03-06T03:28:20.544Z,930.61
2019-03-06T03:29:20.531Z,930.57
2019-03-06T03:30:20.509Z,930.51
2019-03-06T03:31:20.498Z,930.50
2019-03-06T03:32:20.491Z,930.51
2019-03-06T03:33:20.567Z,930.52
2019-03-06T03:34:20.490Z,930.55
2019-03-06T03:35:20.454Z,930.52
2019-03-06T03:36:20.444Z,930.53
2019-03-06T03:37:20.431Z,930.52
2019-03-06T03:38:20.459Z,930.57
2019-03-06T03:39:20.422Z,930.52
2019-03-06T03:40:20.408Z,930.50
2019-03-06T03:41:20.384Z,930.52
2019-03-06T03:42:20.375Z,930.50
2019-03-06T03:43:20.361Z,930.45
2019-03-06T03:44:20.394Z,930.46
2019-03-06T03:45:20.343Z,930.48
2019-03-06T03:46:20.332Z,930.48
2019-03-06T03:47:20.317Z,930.45
2019-03-06T03:48:20.305Z,930.47
2019-03-06T03:49:20.317Z,930.46
2019-03-06T03:50:20.349Z,930.46
2019-03-06T03:51:20.271Z,930.43
2019-03-06T03:52:20.262Z,930.41
2019-03-06T03:53:20.248Z,930.42
2019-03-06T03:54:20.237Z,930.42
2019-03-06T03:55:20.255Z,930.39
2019-03-06T03:56:20.239Z,930.37
2019-03-06T03:57:20.207Z,930.35
2019-03-06T03:58:20.196Z,930.36
2019-03-06T03:59:20.182Z,930.33
2019-03-06T04:00:20.188Z,930.26
2019-03-06T04:01:20.162Z,930.29
2019-03-06T04:02:20.161Z,930.32
2019-03-06T04:03:20.138Z,930.29
2019-03-06T04:04:20.137Z,930.30
2019-03-06T04:05:20.137Z,930.29
2019-03-06T04:06:20.108Z,930.31
2019-03-06T04:07:20.094Z,930.34
2019-03-06T04:08:20.090Z,930.37
2019-03-06T04:09:20.071Z,930.35
2019-03-06T04:10:20.084Z,930.36
2019-03-06T04:11:20.048Z,930.35
2019-03-06T04:12:20.040Z,930.39
2019-03-06T04:13:20.026Z,930.39
2019-03-06T04:14:20.020Z,930.42
2019-03-06T04:15:20.029Z,930.42
2019-03-06T04:16:20.014Z,930.45
2019-03-06T04:17:19.991Z,930.39
2019-03-06T04:18:19.972Z,930.39
2019-03-06T04:19:19.961Z,930.41
2019-03-06T04:20:19.970Z,930.40
2019-03-06T04:21:19.937Z,930.36
2019-03-06T04:22:19.927Z,930.37
2019-03-06T04:23:19.913Z,930.33
2019-03-06T04:24:19.904Z,930.32
2019-03-06T04:25:19.918Z,930.36
2019-03-06T04:26:19.887Z,930.35
2019-03-06T04:27:19.868Z,930.31
2019-03-06T04:28:19.860Z,930.34
2019-03-06T04:29:19.850Z,930.37
2019-03-06T04:30:19.859Z,930.40
2019-03-06T04:31:19.824Z,930.45
2019-03-06T04:32:19.828Z,930.41
2019-03-06T04:33:19.809Z,930.46
2019-03-06T04:34:19.790Z,930.46
2019-03-06T04:35:19.806Z,930.44
2019-03-06T04:36:19.768Z,930.43
2019-03-06T04:37:19.759Z,930.41
2019-03-06T04:38:19.757Z,930.36
2019-03-06T04:39:19.737Z,930.38
2019-03-06T04:40:19.738Z,930.40
2019-03-06T04:41:19.712Z,930.38
2019-03-06T04:42:19.703Z,930.34
2019-03-06T04:43:19.689Z,930.36
2019-03-06T04:44:19.685Z,930.37
2019-03-06T04:45:19.685Z,930.40
2019-03-06T04:46:19.660Z,930.33
2019-03-06T04:47:19.644Z,930.31
2019-03-06T04:48:19.633Z,930.27
2019-03-06T04:49:19.621Z,930.28
2019-03-06T04:50:19.636Z,930.26
2019-03-06T04:51:19.602Z,930.26
2019-03-06T04:52:19.588Z,930.25
2019-03-06T04:53:19.580Z,930.25
2019-03-06T04:54:19.566Z,930.29
2019-03-06T04:55:19.575Z,930.28
2019-03-06T04:56:19.556Z,930.28
2019-03-06T04:57:19.534Z,930.29
2019-03-06T04:58:19.523Z,930.29
2019-03-06T04:59:19.512Z,930.28
2019-03-06T05:00:19.540Z,930.28
2019-03-06T05:01:19.488Z,930.22
2019-03-06T05:02:19.481Z,930.23
2019-03-06T05:03:19.464Z,930.23
2019-03-06T05:04:19.453Z,930.19
2019-03-06T05:05:19.441Z,930.23
2019-03-06T05:06:19.449Z,930.24
2019-03-06T05:07:19.421Z,930.26
2019-03-06T05:08:19.415Z,930.29
2019-03-06T05:09:19.397Z,930.30
2019-03-06T05:10:19.385Z,930.28
2019-03-06T05:11:19.392Z,930.26
2019-03-06T05:12:19.362Z,930.23
2019-03-06T05:13:19.357Z,930.22
2019-03-06T05:14:19.349Z,930.24
2019-03-06T05:15:19.330Z,930.25
2019-03-06T05:16:19.332Z,930.24
2019-03-06T05:17:19.305Z,930.26
2019-03-06T05:18:19.294Z,930.25
2019-03-06T05:19:19.286Z,930.24
2019-03-06T05:20:19.279Z,930.23
2019-03-06T05:21:19.279Z,930.19
2019-03-06T05:22:19.307Z,930.21
2019-03-06T05:23:19.238Z,930.19
2019-03-06T05:24:19.227Z,930.17
2019-03-06T05:25:19.217Z,930.17
2019-03-06T05:26:19.233Z,930.16
2019-03-06T05:27:19.193Z,930.14
2019-03-06T05:28:19.182Z,930.18
2019-03-06T05:29:19.171Z,930.16
2019-03-06T05:30:19.161Z,930.22
2019-03-06T05:31:19.165Z,930.10
2019-03-06T05:32:19.149Z,930.11
2019-03-06T05:33:19.127Z,930.09
2019-03-06T05:34:19.116Z,930.08
2019-03-06T05:35:19.103Z,930.09
2019-03-06T05:36:19.110Z,930.06
2019-03-06T05:37:19.080Z,930.07
2019-03-06T05:38:19.080Z,930.10
2019-03-06T05:39:19.057Z,930.08
2019-03-06T05:40:19.046Z,930.13
2019-03-06T05:41:19.049Z,930.09
2019-03-06T05:42:19.023Z,930.11
2019-03-06T05:43:19.017Z,930.15
2019-03-06T05:44:19.009Z,930.13
2019-03-06T05:45:18.987Z,930.08
2019-03-06T05:46:19.002Z,930.10
2019-03-06T05:47:18.968Z,930.08
2019-03-06T05:48:18.953Z,930.06
2019-03-06T05:49:18.942Z,930.03
2019-03-06T05:50:20.314Z,930.02
2019-03-06T05:51:18.920Z,929.98
2019-03-06T05:52:18.924Z,929.95
2019-03-06T05:53:18.897Z,929.89
2019-03-06T05:54:18.885Z,929.86
2019-03-06T05:55:18.873Z,929.85
2019-03-06T05:56:18.870Z,929.78
2019-03-06T05:57:18.867Z,929.77
2019-03-06T05:58:18.842Z,929.77
2019-03-06T05:59:18.828Z,929.71
2019-03-06T06:00:18.817Z,929.65
2019-03-06T06:01:18.805Z,929.59
2019-03-06T06:02:18.819Z,929.53
2019-03-06T06:03:18.784Z,929.45
2019-03-06T06:04:18.773Z,929.47
2019-03-06T06:05:18.760Z,929.54
2019-03-06T06:06:18.752Z,929.56
2019-03-06T06:07:18.765Z,929.67
2019-03-06T06:08:18.731Z,929.67
2019-03-06T06:09:18.714Z,929.68
2019-03-06T06:10:18.701Z,929.64
2019-03-06T06:11:18.692Z,929.67
2019-03-06T06:12:18.697Z,929.67
2019-03-06T06:13:18.671Z,929.68
2019-03-06T06:14:18.664Z,929.65
2019-03-06T06:15:18.645Z,929.66
2019-03-06T06:16:18.633Z,929.67
2019-03-06T06:17:18.640Z,929.70
2019-03-06T06:18:18.610Z,929.71
2019-03-06T06:19:18.599Z,929.75
2019-03-06T06:20:18.595Z,929.64
2019-03-06T06:21:18.586Z,929.71
2019-03-06T06:22:18.581Z,929.64
2019-03-06T06:23:18.554Z,929.67
2019-03-06T06:24:18.546Z,929.67
2019-03-06T06:25:18.538Z,929.68
2019-03-06T06:26:18.528Z,929.65
2019-03-06T06:27:18.535Z,929.61
2019-03-06T06:28:18.499Z,929.65
2019-03-06T06:29:18.489Z,929.68
2019-03-06T06:30:18.474Z,929.67
2019-03-06T06:31:18.463Z,929.67
2019-03-06T06:32:18.458Z,929.68
2019-03-06T06:33:18.466Z,929.64
2019-03-06T06:34:18.428Z,929.66
2019-03-06T06:35:18.420Z,929.61
2019-03-06T06:36:18.408Z,929.58
2019-03-06T06:37:18.393Z,929.54
2019-03-06T06:38:18.409Z,929.55
2019-03-06T06:39:18.372Z,929.52
2019-03-06T06:40:18.404Z,929.55
2019-03-06T06:41:18.348Z,929.57
2019-03-06T06:42:18.338Z,929.58
2019-03-06T06:43:18.347Z,929.54
2019-03-06T06:44:18.321Z,929.55
2019-03-06T06:45:18.304Z,929.55
2019-03-06T06:46:18.296Z,929.52
2019-03-06T06:47:18.281Z,929.46
2019-03-06T06:48:18.290Z,929.40
2019-03-06T06:49:18.259Z,929.38
2019-03-06T06:50:18.256Z,929.35
2019-03-06T06:51:18.237Z,929.31
2019-03-06T06:52:18.225Z,929.31
2019-03-06T06:53:18.245Z,929.34
2019-03-06T06:54:18.199Z,929.35
2019-03-06T06:55:18.190Z,929.35
2019-03-06T06:56:18.203Z,929.31
2019-03-06T06:57:18.166Z,929.29
2019-03-06T06:58:18.156Z,929.28
2019-03-06T06:59:18.161Z,929.29
2019-03-06T07:00:18.135Z,929.28
2019-03-06T07:01:18.119Z,929.28
2019-03-06T07:02:18.118Z,929.28
2019-03-06T07:03:18.098Z,929.27
2019-03-06T07:04:18.101Z,929.27
2019-03-06T07:05:18.074Z,929.27
2019-03-06T07:06:18.062Z,929.23
2019-03-06T07:07:18.053Z,929.22
2019-03-06T07:08:18.056Z,929.24
2019-03-06T07:09:18.054Z,929.27
2019-03-06T07:10:18.017Z,929.23
2019-03-06T07:11:18.006Z,929.22
2019-03-06T07:12:17.999Z,929.25
2019-03-06T07:13:17.982Z,929.21
2019-03-06T07:14:17.996Z,929.24
2019-03-06T07:15:17.960Z,929.22
2019-03-06T07:16:17.947Z,929.25
2019-03-06T07:17:17.938Z,929.23
2019-03-06T07:18:17.926Z,929.29
2019-03-06T07:19:17.939Z,929.27
2019-03-06T07:20:17.908Z,929.28
2019-03-06T07:21:17.895Z,929.29
2019-03-06T07:22:17.882Z,929.23
2019-03-06T07:23:17.870Z,929.23
2019-03-06T07:24:17.874Z,929.17
2019-03-06T07:25:17.990Z,929.16
2019-03-06T07:26:17.842Z,929.16
2019-03-06T07:27:17.822Z,929.16
2019-03-06T07:28:17.811Z,929.14
2019-03-06T07:29:17.819Z,929.10
2019-03-06T07:30:17.789Z,929.11
2019-03-06T07:31:17.779Z,929.16
2019-03-06T07:32:17.786Z,929.15
2019-03-06T07:33:17.756Z,929.16
2019-03-06T07:34:17.759Z,929.18
2019-03-06T07:35:17.732Z,929.15
2019-03-06T07:36:17.724Z,929.13
2019-03-06T07:37:17.710Z,929.15
2019-03-06T07:38:17.708Z,929.12
2019-03-06T07:39:17.730Z,929.11
2019-03-06T07:40:17.676Z,929.08
2019-03-06T07:41:17.666Z,929.06
2019-03-06T07:42:17.656Z,929.08
2019-03-06T07:43:17.643Z,929.12
2019-03-06T07:44:17.642Z,929.07
2019-03-06T07:45:17.643Z,929.09
2019-03-06T07:46:17.611Z,929.07
2019-03-06T07:47:17.600Z,929.07
2019-03-06T07:48:17.589Z,929.06
2019-03-06T07:49:17.577Z,929.09
2019-03-06T07:50:17.590Z,929.06
2019-03-06T07:51:17.555Z,929.05
2019-03-06T07:52:17.546Z,929.07
2019-03-06T07:53:17.533Z,929.10
2019-03-06T07:54:17.522Z,929.07
2019-03-06T07:55:17.630Z,929.07
2019-03-06T07:56:17.514Z,929.07
2019-03-06T07:57:17.487Z,929.01
2019-03-06T07:58:17.477Z,929.04
2019-03-06T07:59:17.464Z,929.04
2019-03-06T08:00:17.471Z,929.02
2019-03-06T08:01:17.456Z,929.02
2019-03-06T08:02:17.442Z,929.02
2019-03-06T08:03:17.420Z,928.99
2019-03-06T08:04:17.417Z,928.99
2019-03-06T08:05:17.415Z,928.93
2019-03-06T08:06:17.387Z,928.92
2019-03-06T08:07:17.378Z,928.88
2019-03-06T08:08:17.380Z,928.85
2019-03-06T08:09:17.354Z,928.82
2019-03-06T08:10:17.359Z,928.81
2019-03-06T08:11:17.332Z,928.78
2019-03-06T08:12:17.321Z,928.79
2019-03-06T08:13:17.310Z,928.83
2019-03-06T08:14:22.271Z,928.79
2019-03-06T08:15:18.301Z,928.80
2019-03-06T08:16:17.277Z,928.81
2019-03-06T08:17:17.265Z,928.83
2019-03-06T08:18:17.253Z,928.82
2019-03-06T08:19:17.244Z,928.82
2019-03-06T08:20:17.258Z,928.81
2019-03-06T08:21:17.224Z,928.80
2019-03-06T08:22:17.209Z,928.78
2019-03-06T08:23:17.197Z,928.79
2019-03-06T08:24:17.188Z,928.74
2019-03-06T08:25:17.190Z,928.77
2019-03-06T08:26:17.187Z,928.73
2019-03-06T08:27:17.153Z,928.74
2019-03-06T08:28:17.143Z,928.71
2019-03-06T08:29:17.131Z,928.68
2019-03-06T08:30:17.135Z,928.71
2019-03-06T08:31:17.118Z,928.70
2019-03-06T08:32:17.105Z,928.68
2019-03-06T08:33:18.412Z,928.62
2019-03-06T08:34:17.095Z,928.61
2019-03-06T08:35:17.082Z,928.61
2019-03-06T08:36:17.058Z,928.61
2019-03-06T08:37:17.597Z,928.57
2019-03-06T08:38:17.039Z,928.60
2019-03-06T08:39:17.029Z,928.59
2019-03-06T08:40:17.023Z,928.62
2019-03-06T08:41:16.998Z,928.56
2019-03-06T08:42:16.987Z,928.58
2019-03-06T08:43:16.977Z,928.55
2019-03-06T08:44:16.968Z,928.55
2019-03-06T08:45:16.970Z,928.50
2019-03-06T08:46:16.948Z,928.55
2019-03-06T08:47:16.930Z,928.57
2019-03-06T08:48:16.920Z,928.62
2019-03-06T08:49:16.910Z,928.61
2019-03-06T08:50:16.938Z,928.56
2019-03-06T08:51:16.887Z,928.54
2019-03-06T08:52:16.885Z,928.53
2019-03-06T08:53:16.863Z,928.53
2019-03-06T08:54:16.854Z,928.53
2019-03-06T08:55:16.843Z,928.54
2019-03-06T08:56:16.859Z,928.50
2019-03-06T08:57:16.820Z,928.51
2019-03-06T08:58:16.808Z,928.51
2019-03-06T08:59:18.650Z,928.51
2019-03-06T09:00:16.789Z,928.49
2019-03-06T09:01:16.795Z,928.47
2019-03-06T09:02:16.774Z,928.46
2019-03-06T09:03:16.753Z,928.42
2019-03-06T09:04:16.742Z,928.43
2019-03-06T09:05:16.729Z,928.42
2019-03-06T09:06:16.736Z,928.37
2019-03-06T09:07:16.724Z,928.38
2019-03-06T09:08:16.706Z,928.41
2019-03-06T09:09:16.685Z,928.39
2019-03-06T09:10:16.676Z,928.41
2019-03-06T09:11:16.679Z,928.36
2019-03-06T09:12:16.652Z,928.38
2019-03-06T09:13:16.642Z,928.35
2019-03-06T09:14:16.639Z,928.34
2019-03-06T09:15:16.620Z,928.34
2019-03-06T09:16:16.623Z,928.34
2019-03-06T09:17:16.597Z,928.33
2019-03-06T09:18:16.585Z,928.34
2019-03-06T09:19:16.574Z,928.27
2019-03-06T09:20:16.575Z,928.20
2019-03-06T09:21:16.569Z,928.22
2019-03-06T09:22:16.541Z,928.18
2019-03-06T09:23:22.750Z,928.19
2019-03-06T09:24:17.517Z,928.18
2019-03-06T09:25:16.509Z,928.16
2019-03-06T09:26:16.522Z,928.17
2019-03-06T09:27:16.486Z,928.15
2019-03-06T09:28:16.476Z,928.15
2019-03-06T09:29:16.466Z,928.13
2019-03-06T09:30:16.484Z,928.12
2019-03-06T09:31:16.458Z,928.10
2019-03-06T09:32:16.442Z,928.13
2019-03-06T09:33:16.420Z,928.12
2019-03-06T09:34:16.407Z,928.17
2019-03-06T09:35:16.396Z,928.11
2019-03-06T09:36:16.417Z,928.06
2019-03-06T09:37:16.374Z,928.08
2019-03-06T09:38:16.372Z,928.00
2019-03-06T09:39:16.352Z,927.95
2019-03-06T09:40:16.341Z,927.91
2019-03-06T09:41:16.331Z,927.93
2019-03-06T09:42:18.419Z,927.94
2019-03-06T09:43:16.309Z,927.97
2019-03-06T09:44:16.299Z,927.91
2019-03-06T09:45:16.293Z,927.85
2019-03-06T09:46:16.274Z,927.90
2019-03-06T09:47:16.279Z,927.87
2019-03-06T09:48:16.252Z,927.88
2019-03-06T09:49:16.243Z,927.88
2019-03-06T09:50:16.230Z,927.87
2019-03-06T09:51:16.230Z,927.85
2019-03-06T09:52:16.230Z,927.85
2019-03-06T09:53:16.199Z,927.81
2019-03-06T09:54:16.186Z,927.77
2019-03-06T09:55:16.175Z,927.83
2019-03-06T09:56:16.163Z,927.83
2019-03-06T09:57:16.177Z,927.85
2019-03-06T09:58:16.144Z,927.83
2019-03-06T09:59:16.133Z,927.80
2019-03-06T10:00:16.119Z,927.78
2019-03-06T10:01:16.108Z,927.75
2019-03-06T10:02:16.115Z,927.72
2019-03-06T10:03:16.092Z,927.68
2019-03-06T10:04:16.076Z,927.70
2019-03-06T10:05:16.063Z,927.72
2019-03-06T10:06:16.056Z,927.68
2019-03-06T10:07:16.057Z,927.68
2019-03-06T10:08:16.030Z,927.68
2019-03-06T10:09:16.028Z,927.69
2019-03-06T10:10:16.008Z,927.70
2019-03-06T10:11:17.221Z,927.68
2019-03-06T10:12:16.001Z,927.70
2019-03-06T10:13:15.974Z,927.73
2019-03-06T10:14:15.967Z,927.73
2019-03-06T10:15:15.960Z,927.74
2019-03-06T10:16:16.168Z,927.73
2019-03-06T10:17:15.946Z,927.70
2019-03-06T10:18:15.921Z,927.66
2019-03-06T10:19:15.915Z,927.66
2019-03-06T10:20:24.901Z,927.65
2019-03-06T10:21:16.890Z,927.67
2019-03-06T10:22:15.901Z,927.63
2019-03-06T10:23:15.867Z,927.61
2019-03-06T10:24:15.855Z,927.57
2019-03-06T10:25:15.844Z,927.59
2019-03-06T10:26:15.890Z,927.63
2019-03-06T10:27:15.862Z,927.61
2019-03-06T10:28:15.810Z,927.59
2019-03-06T10:29:15.798Z,927.58
2019-03-06T10:30:15.787Z,927.60
2019-03-06T10:31:15.777Z,927.60
2019-03-06T10:32:15.783Z,927.55
2019-03-06T10:33:15.761Z,927.58
2019-03-06T10:34:15.744Z,927.58
2019-03-06T10:35:15.808Z,927.55
2019-03-06T10:36:15.727Z,927.49
2019-03-06T10:37:15.728Z,927.50
2019-03-06T10:38:16.844Z,927.46
2019-03-06T10:39:15.697Z,927.44
2019-03-06T10:40:15.680Z,927.44
2019-03-06T10:41:15.670Z,927.41
2019-03-06T10:42:15.684Z,927.40
2019-03-06T10:43:15.649Z,927.37
2019-03-06T10:44:15.635Z,927.34
2019-03-06T10:45:15.628Z,927.34
2019-03-06T10:46:15.616Z,927.28
2019-03-06T10:47:15.623Z,927.33
2019-03-06T10:48:15.595Z,927.29
2019-03-06T10:49:15.582Z,927.23
2019-03-06T10:50:15.575Z,927.21
2019-03-06T10:51:15.571Z,927.21
2019-03-06T10:52:15.585Z,927.20
2019-03-06T10:53:15.540Z,927.18
2019-03-06T10:54:15.532Z,927.20
2019-03-06T10:55:15.519Z,927.21
2019-03-06T10:56:15.507Z,927.18
2019-03-06T10:57:15.504Z,927.23
2019-03-06T10:58:15.500Z,927.20
2019-03-06T10:59:15.474Z,927.19
2019-03-06T11:00:15.465Z,927.16
2019-03-06T11:01:15.453Z,927.21
2019-03-06T11:02:15.442Z,927.18
2019-03-06T11:03:15.453Z,927.18
2019-03-06T11:04:15.423Z,927.21
2019-03-06T11:05:15.418Z,927.18
2019-03-06T11:06:15.399Z,927.18
2019-03-06T11:07:15.389Z,927.19
2019-03-06T11:08:15.396Z,927.19
2019-03-06T11:09:15.368Z,927.16
2019-03-06T11:10:23.499Z,927.16
2019-03-06T11:11:16.344Z,927.15
2019-03-06T11:12:15.334Z,927.09
2019-03-06T11:13:15.338Z,927.13
2019-03-06T11:14:15.313Z,927.09
2019-03-06T11:15:15.301Z,927.13
2019-03-06T11:16:17.969Z,927.08
2019-03-06T11:17:15.282Z,927.10
2019-03-06T11:18:16.442Z,927.07
2019-03-06T11:19:15.259Z,927.05
2019-03-06T11:20:15.250Z,927.08
2019-03-06T11:21:15.239Z,927.07
2019-03-06T11:22:15.242Z,927.06
2019-03-06T11:23:15.258Z,927.03
2019-03-06T11:24:15.204Z,927.03
2019-03-06T11:25:15.194Z,927.02
2019-03-06T11:26:15.184Z,927.01
2019-03-06T11:27:15.174Z,926.97
2019-03-06T11:28:15.184Z,926.97
2019-03-06T11:29:15.169Z,927.01
2019-03-06T11:30:15.141Z,927.02
2019-03-06T11:31:15.134Z,927.06
2019-03-06T11:32:15.122Z,927.01
2019-03-06T11:33:15.109Z,927.02
2019-03-06T11:34:15.121Z,927.04
2019-03-06T11:35:15.089Z,927.00
2019-03-06T11:36:15.077Z,927.03
2019-03-06T11:37:15.067Z,927.03
2019-03-06T11:38:15.058Z,926.97
2019-03-06T11:39:15.064Z,926.93
2019-03-06T11:40:15.044Z,926.89
2019-03-06T11:41:15.024Z,926.83
2019-03-06T11:42:15.013Z,926.82
2019-03-06T11:43:15.001Z,926.81
2019-03-06T11:44:15.008Z,926.77
2019-03-06T11:45:14.984Z,926.76
2019-03-06T11:46:14.980Z,926.74
2019-03-06T11:47:14.959Z,926.75
2019-03-06T11:48:14.956Z,926.72
2019-03-06T11:49:14.953Z,926.73
2019-03-06T11:50:14.931Z,926.74
2019-03-06T11:51:14.919Z,926.71
2019-03-06T11:52:14.914Z,926.71
2019-03-06T11:53:14.896Z,926.76
2019-03-06T11:54:14.897Z,926.77
2019-03-06T11:55:14.872Z,926.79
2019-03-06T11:56:14.861Z,926.78
2019-03-06T11:57:14.857Z,926.75
2019-03-06T11:58:14.852Z,926.72
2019-03-06T11:59:14.867Z,926.66
2019-03-06T12:00:14.817Z,926.65
2019-03-06T12:01:14.804Z,926.71
2019-03-06T12:02:14.795Z,926.66
2019-03-06T12:03:14.782Z,926.63
2019-03-06T12:04:14.776Z,926.65
2019-03-06T12:05:14.776Z,926.62
2019-03-06T12:06:14.749Z,926.59
2019-03-06T12:07:14.737Z,926.60
2019-03-06T12:08:14.727Z,926.59
2019-03-06T12:09:14.714Z,926.54
2019-03-06T12:10:14.730Z,926.50
2019-03-06T12:11:14.694Z,926.45
2019-03-06T12:12:14.683Z,926.47
2019-03-06T12:13:14.703Z,926.45
2019-03-06T12:14:14.661Z,926.43
2019-03-06T12:15:14.666Z,926.41
2019-03-06T12:16:14.645Z,926.38
2019-03-06T12:17:14.629Z,926.31
2019-03-06T12:18:14.616Z,926.27
2019-03-06T12:19:14.607Z,926.26
2019-03-06T12:20:14.609Z,926.20
2019-03-06T12:21:14.583Z,926.20
2019-03-06T12:22:14.575Z,926.18
2019-03-06T12:23:14.817Z,926.21
2019-03-06T12:24:14.551Z,926.19
2019-03-06T12:25:14.554Z,926.22
2019-03-06T12:26:14.530Z,926.21
2019-03-06T12:27:14.523Z,926.15
2019-03-06T12:28:14.511Z,926.11